sensor_id;sensor_type;location;lat;lon;timestamp;P1;durP1;ratioP1;P2;durP2;ratioP2
84966;SDS011;75275;51.348;12.358;2024-01-15T00:00:32;14.10;;;7.60;;
84966;SDS011;75275;51.348;12.358;2024-01-15T00:02:59;11.40;;;6.32;;
84966;SDS011;75275;51.348;12.358;2024-01-15T00:05:30;12.48;;;6.38;;
84966;SDS011;75275;51.348;12.358;2024-01-15T00:07:57;13.43;;;7.10;;
84966;SDS011;75275;51.348;12.358;2024-01-15T00:12:53;14.80;;;6.95;;
84966;SDS011;75275;51.348;12.358;2024-01-15T00:15:20;12.32;;;7.03;;
84966;SDS011;75275;51.348;12.358;2024-01-15T00:20:14;12.90;;;7.03;;
84966;SDS011;75275;51.348;12.358;2024-01-15T00:22:43;13.43;;;7.88;;
84966;SDS011;75275;51.348;12.358;2024-01-15T00:25:10;13.13;;;7.40;;
84966;SDS011;75275;51.348;12.358;2024-01-15T00:27:39;13.60;;;7.55;;
84966;SDS011;75275;51.348;12.358;2024-01-15T00:30:07;12.88;;;7.00;;
84966;SDS011;75275;51.348;12.358;2024-01-15T00:32:34;14.65;;;8.50;;
84966;SDS011;75275;51.348;12.358;2024-01-15T00:35:10;14.35;;;7.95;;
84966;SDS011;75275;51.348;12.358;2024-01-15T00:37:40;12.25;;;7.57;;
84966;SDS011;75275;51.348;12.358;2024-01-15T00:40:09;16.30;;;8.38;;
84966;SDS011;75275;51.348;12.358;2024-01-15T00:42:38;14.90;;;8.45;;
84966;SDS011;75275;51.348;12.358;2024-01-15T00:45:08;15.15;;;7.43;;
84966;SDS011;75275;51.348;12.358;2024-01-15T00:47:36;14.23;;;7.53;;
84966;SDS011;75275;51.348;12.358;2024-01-15T00:50:03;14.13;;;7.22;;
84966;SDS011;75275;51.348;12.358;2024-01-15T00:52:31;13.65;;;7.18;;
84966;SDS011;75275;51.348;12.358;2024-01-15T00:54:58;15.13;;;8.15;;
84966;SDS011;75275;51.348;12.358;2024-01-15T00:57:27;13.30;;;7.07;;
84966;SDS011;75275;51.348;12.358;2024-01-15T00:59:54;14.35;;;7.68;;
84966;SDS011;75275;51.348;12.358;2024-01-15T01:02:21;14.20;;;7.03;;
84966;SDS011;75275;51.348;12.358;2024-01-15T01:04:48;13.07;;;7.15;;
84966;SDS011;75275;51.348;12.358;2024-01-15T01:07:15;14.23;;;7.70;;
84966;SDS011;75275;51.348;12.358;2024-01-15T01:12:09;13.27;;;6.68;;
84966;SDS011;75275;51.348;12.358;2024-01-15T01:14:37;12.50;;;6.85;;
84966;SDS011;75275;51.348;12.358;2024-01-15T01:17:21;14.30;;;7.50;;
84966;SDS011;75275;51.348;12.358;2024-01-15T01:19:49;12.85;;;6.80;;
84966;SDS011;75275;51.348;12.358;2024-01-15T01:22:16;15.02;;;7.82;;
84966;SDS011;75275;51.348;12.358;2024-01-15T01:24:43;14.02;;;7.13;;
84966;SDS011;75275;51.348;12.358;2024-01-15T01:27:10;11.52;;;7.32;;
84966;SDS011;75275;51.348;12.358;2024-01-15T01:29:39;12.70;;;7.05;;
84966;SDS011;75275;51.348;12.358;2024-01-15T01:32:06;13.38;;;7.65;;
84966;SDS011;75275;51.348;12.358;2024-01-15T01:34:35;14.93;;;8.38;;
84966;SDS011;75275;51.348;12.358;2024-01-15T01:37:06;12.20;;;6.70;;
84966;SDS011;75275;51.348;12.358;2024-01-15T01:39:33;13.27;;;6.63;;
84966;SDS011;75275;51.348;12.358;2024-01-15T01:42:00;15.60;;;7.22;;
84966;SDS011;75275;51.348;12.358;2024-01-15T01:44:27;12.23;;;6.95;;
84966;SDS011;75275;51.348;12.358;2024-01-15T01:47:01;14.57;;;6.97;;
84966;SDS011;75275;51.348;12.358;2024-01-15T01:49:30;13.27;;;7.30;;
84966;SDS011;75275;51.348;12.358;2024-01-15T01:51:57;12.23;;;7.38;;
84966;SDS011;75275;51.348;12.358;2024-01-15T01:54:29;14.52;;;7.05;;
84966;SDS011;75275;51.348;12.358;2024-01-15T01:56:58;12.20;;;6.70;;
84966;SDS011;75275;51.348;12.358;2024-01-15T01:59:28;15.10;;;7.50;;
84966;SDS011;75275;51.348;12.358;2024-01-15T02:01:56;14.48;;;7.97;;
84966;SDS011;75275;51.348;12.358;2024-01-15T02:04:26;13.15;;;6.63;;
84966;SDS011;75275;51.348;12.358;2024-01-15T02:06:54;14.70;;;7.05;;
84966;SDS011;75275;51.348;12.358;2024-01-15T02:09:21;14.85;;;7.28;;
84966;SDS011;75275;51.348;12.358;2024-01-15T02:11:48;13.23;;;7.10;;
84966;SDS011;75275;51.348;12.358;2024-01-15T02:14:15;14.52;;;6.97;;
84966;SDS011;75275;51.348;12.358;2024-01-15T02:19:14;12.85;;;6.40;;
84966;SDS011;75275;51.348;12.358;2024-01-15T02:21:43;14.05;;;7.72;;
84966;SDS011;75275;51.348;12.358;2024-01-15T02:24:12;13.55;;;7.05;;
84966;SDS011;75275;51.348;12.358;2024-01-15T02:26:39;11.93;;;5.97;;
84966;SDS011;75275;51.348;12.358;2024-01-15T02:29:06;14.77;;;6.95;;
84966;SDS011;75275;51.348;12.358;2024-01-15T02:31:37;11.10;;;6.00;;
84966;SDS011;75275;51.348;12.358;2024-01-15T02:34:05;11.85;;;6.68;;
84966;SDS011;75275;51.348;12.358;2024-01-15T02:38:59;12.57;;;7.03;;
84966;SDS011;75275;51.348;12.358;2024-01-15T02:41:27;12.90;;;6.78;;
84966;SDS011;75275;51.348;12.358;2024-01-15T02:43:54;13.13;;;7.45;;
84966;SDS011;75275;51.348;12.358;2024-01-15T02:46:21;12.55;;;6.80;;
84966;SDS011;75275;51.348;12.358;2024-01-15T02:48:48;16.00;;;6.80;;
84966;SDS011;75275;51.348;12.358;2024-01-15T02:51:15;15.85;;;7.13;;
84966;SDS011;75275;51.348;12.358;2024-01-15T02:53:42;13.23;;;6.20;;
84966;SDS011;75275;51.348;12.358;2024-01-15T02:56:08;14.20;;;6.40;;
84966;SDS011;75275;51.348;12.358;2024-01-15T02:58:46;12.30;;;6.68;;
84966;SDS011;75275;51.348;12.358;2024-01-15T03:01:13;15.43;;;7.38;;
84966;SDS011;75275;51.348;12.358;2024-01-15T03:03:41;10.82;;;6.25;;
84966;SDS011;75275;51.348;12.358;2024-01-15T03:06:08;13.50;;;6.35;;
84966;SDS011;75275;51.348;12.358;2024-01-15T03:08:36;10.25;;;5.97;;
84966;SDS011;75275;51.348;12.358;2024-01-15T03:11:03;12.82;;;6.30;;
84966;SDS011;75275;51.348;12.358;2024-01-15T03:15:58;15.50;;;6.95;;
84966;SDS011;75275;51.348;12.358;2024-01-15T03:18:25;13.27;;;6.93;;
84966;SDS011;75275;51.348;12.358;2024-01-15T03:20:54;12.15;;;6.85;;
84966;SDS011;75275;51.348;12.358;2024-01-15T03:23:22;11.48;;;5.80;;
84966;SDS011;75275;51.348;12.358;2024-01-15T03:25:49;14.38;;;6.53;;
84966;SDS011;75275;51.348;12.358;2024-01-15T03:28:16;11.52;;;6.03;;
84966;SDS011;75275;51.348;12.358;2024-01-15T03:30:43;12.13;;;5.93;;
84966;SDS011;75275;51.348;12.358;2024-01-15T03:35:38;10.38;;;5.25;;
84966;SDS011;75275;51.348;12.358;2024-01-15T03:38:05;12.07;;;6.00;;
84966;SDS011;75275;51.348;12.358;2024-01-15T03:40:32;13.43;;;6.35;;
84966;SDS011;75275;51.348;12.358;2024-01-15T03:43:01;12.93;;;6.25;;
84966;SDS011;75275;51.348;12.358;2024-01-15T03:45:28;10.90;;;5.38;;
84966;SDS011;75275;51.348;12.358;2024-01-15T03:47:55;11.40;;;5.90;;
84966;SDS011;75275;51.348;12.358;2024-01-15T03:50:23;12.95;;;6.05;;
84966;SDS011;75275;51.348;12.358;2024-01-15T03:52:51;13.43;;;5.82;;
84966;SDS011;75275;51.348;12.358;2024-01-15T03:55:18;11.85;;;5.95;;
84966;SDS011;75275;51.348;12.358;2024-01-15T03:57:48;10.90;;;6.22;;
84966;SDS011;75275;51.348;12.358;2024-01-15T04:00:21;13.60;;;6.00;;
84966;SDS011;75275;51.348;12.358;2024-01-15T04:02:48;11.27;;;5.88;;
84966;SDS011;75275;51.348;12.358;2024-01-15T04:05:15;12.05;;;6.03;;
84966;SDS011;75275;51.348;12.358;2024-01-15T04:07:44;8.98;;;4.93;;
84966;SDS011;75275;51.348;12.358;2024-01-15T04:10:11;11.15;;;5.93;;
84966;SDS011;75275;51.348;12.358;2024-01-15T04:12:41;10.13;;;5.43;;
84966;SDS011;75275;51.348;12.358;2024-01-15T04:17:37;11.45;;;6.10;;
84966;SDS011;75275;51.348;12.358;2024-01-15T04:20:05;9.93;;;5.53;;
84966;SDS011;75275;51.348;12.358;2024-01-15T04:22:35;10.02;;;4.88;;
84966;SDS011;75275;51.348;12.358;2024-01-15T04:25:12;11.88;;;5.63;;
84966;SDS011;75275;51.348;12.358;2024-01-15T04:27:39;8.48;;;4.45;;
84966;SDS011;75275;51.348;12.358;2024-01-15T04:30:09;12.50;;;6.20;;
84966;SDS011;75275;51.348;12.358;2024-01-15T04:32:37;10.48;;;5.43;;
84966;SDS011;75275;51.348;12.358;2024-01-15T04:35:04;13.93;;;6.07;;
84966;SDS011;75275;51.348;12.358;2024-01-15T04:37:31;10.25;;;5.28;;
84966;SDS011;75275;51.348;12.358;2024-01-15T04:39:58;11.18;;;5.60;;
84966;SDS011;75275;51.348;12.358;2024-01-15T04:42:27;8.93;;;4.78;;
84966;SDS011;75275;51.348;12.358;2024-01-15T04:44:54;12.77;;;5.97;;
84966;SDS011;75275;51.348;12.358;2024-01-15T04:47:21;11.10;;;5.65;;
84966;SDS011;75275;51.348;12.358;2024-01-15T04:49:48;9.15;;;5.13;;
84966;SDS011;75275;51.348;12.358;2024-01-15T04:52:17;9.73;;;5.50;;
84966;SDS011;75275;51.348;12.358;2024-01-15T04:57:11;10.38;;;4.75;;
84966;SDS011;75275;51.348;12.358;2024-01-15T04:59:40;7.72;;;4.07;;
84966;SDS011;75275;51.348;12.358;2024-01-15T05:02:07;11.80;;;5.60;;
84966;SDS011;75275;51.348;12.358;2024-01-15T05:04:34;9.68;;;4.72;;
84966;SDS011;75275;51.348;12.358;2024-01-15T05:07:03;11.43;;;5.10;;
84966;SDS011;75275;51.348;12.358;2024-01-15T05:09:30;9.23;;;4.32;;
84966;SDS011;75275;51.348;12.358;2024-01-15T05:11:59;9.15;;;4.40;;
84966;SDS011;75275;51.348;12.358;2024-01-15T05:14:26;10.00;;;4.60;;
84966;SDS011;75275;51.348;12.358;2024-01-15T05:16:55;7.63;;;4.43;;
84966;SDS011;75275;51.348;12.358;2024-01-15T05:19:22;9.93;;;4.88;;
84966;SDS011;75275;51.348;12.358;2024-01-15T05:21:48;8.75;;;5.20;;
84966;SDS011;75275;51.348;12.358;2024-01-15T05:24:17;7.82;;;3.95;;
84966;SDS011;75275;51.348;12.358;2024-01-15T05:26:44;10.00;;;4.50;;
84966;SDS011;75275;51.348;12.358;2024-01-15T05:29:12;9.18;;;4.80;;
84966;SDS011;75275;51.348;12.358;2024-01-15T05:31:39;9.40;;;4.78;;
84966;SDS011;75275;51.348;12.358;2024-01-15T05:34:08;7.75;;;4.20;;
84966;SDS011;75275;51.348;12.358;2024-01-15T05:36:35;10.35;;;4.45;;
84966;SDS011;75275;51.348;12.358;2024-01-15T05:39:03;10.70;;;4.70;;
84966;SDS011;75275;51.348;12.358;2024-01-15T05:41:29;10.02;;;4.72;;
84966;SDS011;75275;51.348;12.358;2024-01-15T05:43:56;7.82;;;4.55;;
84966;SDS011;75275;51.348;12.358;2024-01-15T05:46:23;9.32;;;4.00;;
84966;SDS011;75275;51.348;12.358;2024-01-15T05:48:52;9.95;;;4.60;;
84966;SDS011;75275;51.348;12.358;2024-01-15T05:51:21;10.80;;;5.47;;
84966;SDS011;75275;51.348;12.358;2024-01-15T05:53:48;10.07;;;4.72;;
84966;SDS011;75275;51.348;12.358;2024-01-15T05:56:15;8.93;;;4.82;;
84966;SDS011;75275;51.348;12.358;2024-01-15T05:58:42;9.27;;;4.78;;
84966;SDS011;75275;51.348;12.358;2024-01-15T06:01:09;8.57;;;4.60;;
84966;SDS011;75275;51.348;12.358;2024-01-15T06:06:03;9.85;;;5.05;;
84966;SDS011;75275;51.348;12.358;2024-01-15T06:08:32;8.82;;;4.28;;
84966;SDS011;75275;51.348;12.358;2024-01-15T06:11:00;9.15;;;4.05;;
84966;SDS011;75275;51.348;12.358;2024-01-15T06:13:28;9.10;;;4.43;;
84966;SDS011;75275;51.348;12.358;2024-01-15T06:15:57;8.32;;;4.10;;
84966;SDS011;75275;51.348;12.358;2024-01-15T06:18:24;7.93;;;4.65;;
84966;SDS011;75275;51.348;12.358;2024-01-15T06:20:51;8.70;;;4.78;;
84966;SDS011;75275;51.348;12.358;2024-01-15T06:23:18;8.93;;;4.78;;
84966;SDS011;75275;51.348;12.358;2024-01-15T06:25:49;7.40;;;4.45;;
84966;SDS011;75275;51.348;12.358;2024-01-15T06:28:16;9.65;;;4.45;;
84966;SDS011;75275;51.348;12.358;2024-01-15T06:30:45;8.13;;;4.32;;
84966;SDS011;75275;51.348;12.358;2024-01-15T06:33:12;9.23;;;4.43;;
84966;SDS011;75275;51.348;12.358;2024-01-15T06:35:39;8.63;;;4.88;;
84966;SDS011;75275;51.348;12.358;2024-01-15T06:38:05;7.65;;;4.35;;
84966;SDS011;75275;51.348;12.358;2024-01-15T06:40:38;9.88;;;4.60;;
84966;SDS011;75275;51.348;12.358;2024-01-15T06:43:12;7.30;;;4.28;;
84966;SDS011;75275;51.348;12.358;2024-01-15T06:45:39;10.90;;;4.95;;
84966;SDS011;75275;51.348;12.358;2024-01-15T06:48:14;8.00;;;4.70;;
84966;SDS011;75275;51.348;12.358;2024-01-15T06:50:41;6.90;;;4.25;;
84966;SDS011;75275;51.348;12.358;2024-01-15T06:53:08;7.95;;;3.95;;
84966;SDS011;75275;51.348;12.358;2024-01-15T06:55:36;11.05;;;4.38;;
84966;SDS011;75275;51.348;12.358;2024-01-15T06:58:06;9.23;;;5.10;;
84966;SDS011;75275;51.348;12.358;2024-01-15T07:00:35;9.93;;;4.43;;
84966;SDS011;75275;51.348;12.358;2024-01-15T07:03:03;9.55;;;4.88;;
84966;SDS011;75275;51.348;12.358;2024-01-15T07:05:31;9.52;;;4.50;;
84966;SDS011;75275;51.348;12.358;2024-01-15T07:07:58;7.75;;;4.50;;
84966;SDS011;75275;51.348;12.358;2024-01-15T07:10:25;9.90;;;4.18;;
84966;SDS011;75275;51.348;12.358;2024-01-15T07:12:52;7.65;;;4.35;;
84966;SDS011;75275;51.348;12.358;2024-01-15T07:15:20;8.85;;;4.80;;
84966;SDS011;75275;51.348;12.358;2024-01-15T07:17:49;8.00;;;4.30;;
84966;SDS011;75275;51.348;12.358;2024-01-15T07:20:16;7.47;;;4.20;;
84966;SDS011;75275;51.348;12.358;2024-01-15T07:22:44;9.60;;;4.38;;
84966;SDS011;75275;51.348;12.358;2024-01-15T07:25:11;7.00;;;3.95;;
84966;SDS011;75275;51.348;12.358;2024-01-15T07:27:39;9.50;;;4.90;;
84966;SDS011;75275;51.348;12.358;2024-01-15T07:30:10;8.60;;;4.45;;
84966;SDS011;75275;51.348;12.358;2024-01-15T07:32:37;6.45;;;3.85;;
84966;SDS011;75275;51.348;12.358;2024-01-15T07:35:07;8.75;;;4.22;;
84966;SDS011;75275;51.348;12.358;2024-01-15T07:37:35;8.23;;;4.45;;
84966;SDS011;75275;51.348;12.358;2024-01-15T07:40:02;7.40;;;4.63;;
84966;SDS011;75275;51.348;12.358;2024-01-15T07:42:33;8.90;;;4.75;;
84966;SDS011;75275;51.348;12.358;2024-01-15T07:45:00;6.90;;;3.95;;
84966;SDS011;75275;51.348;12.358;2024-01-15T07:47:27;7.03;;;4.53;;
84966;SDS011;75275;51.348;12.358;2024-01-15T07:49:54;9.82;;;4.20;;
84966;SDS011;75275;51.348;12.358;2024-01-15T07:54:50;7.93;;;4.10;;
84966;SDS011;75275;51.348;12.358;2024-01-15T07:57:17;7.03;;;3.60;;
84966;SDS011;75275;51.348;12.358;2024-01-15T07:59:44;9.93;;;4.72;;
84966;SDS011;75275;51.348;12.358;2024-01-15T08:02:11;9.23;;;4.50;;
84966;SDS011;75275;51.348;12.358;2024-01-15T08:04:38;9.10;;;4.10;;
84966;SDS011;75275;51.348;12.358;2024-01-15T08:07:05;8.45;;;4.03;;
84966;SDS011;75275;51.348;12.358;2024-01-15T08:09:34;9.77;;;4.88;;
84966;SDS011;75275;51.348;12.358;2024-01-15T08:12:01;9.10;;;4.43;;
84966;SDS011;75275;51.348;12.358;2024-01-15T08:14:28;8.75;;;4.43;;
84966;SDS011;75275;51.348;12.358;2024-01-15T08:19:22;8.45;;;4.55;;
84966;SDS011;75275;51.348;12.358;2024-01-15T08:21:49;6.93;;;3.70;;
84966;SDS011;75275;51.348;12.358;2024-01-15T08:24:16;9.18;;;4.75;;
84966;SDS011;75275;51.348;12.358;2024-01-15T08:26:48;8.35;;;4.30;;
84966;SDS011;75275;51.348;12.358;2024-01-15T08:29:15;9.98;;;4.85;;
84966;SDS011;75275;51.348;12.358;2024-01-15T08:31:44;9.65;;;4.25;;
84966;SDS011;75275;51.348;12.358;2024-01-15T08:34:13;8.38;;;3.95;;
84966;SDS011;75275;51.348;12.358;2024-01-15T08:36:40;9.18;;;4.05;;
84966;SDS011;75275;51.348;12.358;2024-01-15T08:39:07;8.60;;;3.92;;
84966;SDS011;75275;51.348;12.358;2024-01-15T08:41:35;8.40;;;3.75;;
84966;SDS011;75275;51.348;12.358;2024-01-15T08:44:03;10.30;;;4.18;;
84966;SDS011;75275;51.348;12.358;2024-01-15T08:46:30;11.02;;;4.25;;
84966;SDS011;75275;51.348;12.358;2024-01-15T08:48:58;7.50;;;4.00;;
84966;SDS011;75275;51.348;12.358;2024-01-15T08:53:54;7.47;;;3.90;;
84966;SDS011;75275;51.348;12.358;2024-01-15T08:56:23;8.35;;;4.13;;
84966;SDS011;75275;51.348;12.358;2024-01-15T08:58:52;8.30;;;3.67;;
84966;SDS011;75275;51.348;12.358;2024-01-15T09:01:21;9.77;;;3.75;;
84966;SDS011;75275;51.348;12.358;2024-01-15T09:03:48;10.05;;;4.38;;
84966;SDS011;75275;51.348;12.358;2024-01-15T09:06:15;9.55;;;3.85;;
84966;SDS011;75275;51.348;12.358;2024-01-15T09:08:42;8.27;;;3.95;;
84966;SDS011;75275;51.348;12.358;2024-01-15T09:11:09;10.02;;;4.20;;
84966;SDS011;75275;51.348;12.358;2024-01-15T09:13:37;7.93;;;3.83;;
84966;SDS011;75275;51.348;12.358;2024-01-15T09:16:05;7.65;;;3.95;;
84966;SDS011;75275;51.348;12.358;2024-01-15T09:18:53;8.07;;;4.38;;
84966;SDS011;75275;51.348;12.358;2024-01-15T09:21:22;8.15;;;3.85;;
84966;SDS011;75275;51.348;12.358;2024-01-15T09:23:53;7.28;;;3.67;;
84966;SDS011;75275;51.348;12.358;2024-01-15T09:26:20;7.50;;;3.72;;
84966;SDS011;75275;51.348;12.358;2024-01-15T09:28:47;7.15;;;3.72;;
84966;SDS011;75275;51.348;12.358;2024-01-15T09:31:14;8.85;;;4.10;;
84966;SDS011;75275;51.348;12.358;2024-01-15T09:33:44;9.32;;;4.45;;
84966;SDS011;75275;51.348;12.358;2024-01-15T09:36:13;9.07;;;3.95;;
84966;SDS011;75275;51.348;12.358;2024-01-15T09:38:40;9.10;;;4.30;;
84966;SDS011;75275;51.348;12.358;2024-01-15T09:41:07;9.60;;;4.00;;
84966;SDS011;75275;51.348;12.358;2024-01-15T09:46:02;11.73;;;4.38;;
84966;SDS011;75275;51.348;12.358;2024-01-15T09:48:30;7.75;;;4.00;;
84966;SDS011;75275;51.348;12.358;2024-01-15T09:50:59;9.85;;;4.38;;
84966;SDS011;75275;51.348;12.358;2024-01-15T09:53:30;10.55;;;3.92;;
84966;SDS011;75275;51.348;12.358;2024-01-15T09:55:57;8.02;;;4.63;;
84966;SDS011;75275;51.348;12.358;2024-01-15T09:58:25;10.40;;;4.13;;
84966;SDS011;75275;51.348;12.358;2024-01-15T10:00:54;7.30;;;3.90;;
84966;SDS011;75275;51.348;12.358;2024-01-15T10:03:22;8.30;;;4.55;;
84966;SDS011;75275;51.348;12.358;2024-01-15T10:05:49;8.25;;;3.78;;
84966;SDS011;75275;51.348;12.358;2024-01-15T10:08:32;7.82;;;3.92;;
84966;SDS011;75275;51.348;12.358;2024-01-15T10:11:02;10.25;;;4.10;;
84966;SDS011;75275;51.348;12.358;2024-01-15T10:13:35;7.32;;;3.83;;
84966;SDS011;75275;51.348;12.358;2024-01-15T10:16:05;8.00;;;3.92;;
84966;SDS011;75275;51.348;12.358;2024-01-15T10:18:32;6.93;;;3.67;;
84966;SDS011;75275;51.348;12.358;2024-01-15T10:21:06;8.95;;;3.72;;
84966;SDS011;75275;51.348;12.358;2024-01-15T10:23:38;8.68;;;4.22;;
84966;SDS011;75275;51.348;12.358;2024-01-15T10:26:04;7.85;;;4.07;;
84966;SDS011;75275;51.348;12.358;2024-01-15T10:28:32;9.85;;;3.80;;
84966;SDS011;75275;51.348;12.358;2024-01-15T10:30:59;7.18;;;3.35;;
84966;SDS011;75275;51.348;12.358;2024-01-15T10:33:29;8.07;;;4.63;;
84966;SDS011;75275;51.348;12.358;2024-01-15T10:35:56;8.98;;;4.28;;
84966;SDS011;75275;51.348;12.358;2024-01-15T10:38:24;8.77;;;4.30;;
84966;SDS011;75275;51.348;12.358;2024-01-15T10:43:19;12.10;;;4.57;;
84966;SDS011;75275;51.348;12.358;2024-01-15T10:45:47;11.77;;;5.70;;
84966;SDS011;75275;51.348;12.358;2024-01-15T10:48:16;7.82;;;4.25;;
84966;SDS011;75275;51.348;12.358;2024-01-15T10:50:44;8.32;;;4.00;;
84966;SDS011;75275;51.348;12.358;2024-01-15T10:53:13;13.50;;;4.75;;
84966;SDS011;75275;51.348;12.358;2024-01-15T10:55:42;11.63;;;4.97;;
84966;SDS011;75275;51.348;12.358;2024-01-15T10:58:12;8.30;;;4.63;;
84966;SDS011;75275;51.348;12.358;2024-01-15T11:00:40;9.57;;;4.43;;
84966;SDS011;75275;51.348;12.358;2024-01-15T11:03:07;7.68;;;4.38;;
84966;SDS011;75275;51.348;12.358;2024-01-15T11:05:36;10.52;;;4.30;;
84966;SDS011;75275;51.348;12.358;2024-01-15T11:08:06;10.52;;;4.82;;
84966;SDS011;75275;51.348;12.358;2024-01-15T11:10:40;10.23;;;4.38;;
84966;SDS011;75275;51.348;12.358;2024-01-15T11:13:08;8.80;;;4.40;;
84966;SDS011;75275;51.348;12.358;2024-01-15T11:15:58;12.18;;;6.35;;
84966;SDS011;75275;51.348;12.358;2024-01-15T11:18:29;11.50;;;6.40;;
84966;SDS011;75275;51.348;12.358;2024-01-15T11:29:02;10.75;;;6.82;;
84966;SDS011;75275;51.348;12.358;2024-01-15T11:34:51;9.40;;;4.90;;
84966;SDS011;75275;51.348;12.358;2024-01-15T11:37:27;10.18;;;5.15;;
84966;SDS011;75275;51.348;12.358;2024-01-15T11:39:59;12.07;;;4.68;;
84966;SDS011;75275;51.348;12.358;2024-01-15T11:42:28;9.77;;;4.95;;
84966;SDS011;75275;51.348;12.358;2024-01-15T11:45:00;11.27;;;5.25;;
84966;SDS011;75275;51.348;12.358;2024-01-15T11:50:39;8.13;;;4.43;;
84966;SDS011;75275;51.348;12.358;2024-01-15T11:53:08;8.85;;;4.20;;
84966;SDS011;75275;51.348;12.358;2024-01-15T11:55:55;10.48;;;4.35;;
84966;SDS011;75275;51.348;12.358;2024-01-15T11:58:24;8.73;;;4.60;;
84966;SDS011;75275;51.348;12.358;2024-01-15T12:00:54;10.50;;;5.10;;
84966;SDS011;75275;51.348;12.358;2024-01-15T12:03:21;9.55;;;4.43;;
84966;SDS011;75275;51.348;12.358;2024-01-15T12:05:48;9.23;;;4.93;;
84966;SDS011;75275;51.348;12.358;2024-01-15T12:08:20;10.55;;;4.88;;
84966;SDS011;75275;51.348;12.358;2024-01-15T12:10:47;8.70;;;4.68;;
84966;SDS011;75275;51.348;12.358;2024-01-15T12:13:16;10.23;;;5.70;;
84966;SDS011;75275;51.348;12.358;2024-01-15T12:15:43;8.00;;;4.75;;
84966;SDS011;75275;51.348;12.358;2024-01-15T12:18:13;7.68;;;4.55;;
84966;SDS011;75275;51.348;12.358;2024-01-15T12:20:41;8.57;;;4.78;;
84966;SDS011;75275;51.348;12.358;2024-01-15T12:23:15;8.05;;;5.10;;
84966;SDS011;75275;51.348;12.358;2024-01-15T12:25:42;9.70;;;4.72;;
84966;SDS011;75275;51.348;12.358;2024-01-15T12:28:10;9.40;;;4.80;;
84966;SDS011;75275;51.348;12.358;2024-01-15T12:30:36;8.13;;;5.00;;
84966;SDS011;75275;51.348;12.358;2024-01-15T12:33:04;8.65;;;4.40;;
84966;SDS011;75275;51.348;12.358;2024-01-15T12:35:33;10.15;;;4.47;;
84966;SDS011;75275;51.348;12.358;2024-01-15T12:38:03;10.10;;;4.40;;
84966;SDS011;75275;51.348;12.358;2024-01-15T12:40:31;9.85;;;4.90;;
84966;SDS011;75275;51.348;12.358;2024-01-15T12:42:59;9.27;;;4.35;;
84966;SDS011;75275;51.348;12.358;2024-01-15T12:45:26;10.57;;;4.32;;
84966;SDS011;75275;51.348;12.358;2024-01-15T12:50:23;7.75;;;4.40;;
84966;SDS011;75275;51.348;12.358;2024-01-15T12:52:53;7.82;;;4.30;;
84966;SDS011;75275;51.348;12.358;2024-01-15T12:55:20;8.90;;;4.53;;
84966;SDS011;75275;51.348;12.358;2024-01-15T12:57:49;9.82;;;4.60;;
84966;SDS011;75275;51.348;12.358;2024-01-15T13:00:19;8.15;;;4.30;;
84966;SDS011;75275;51.348;12.358;2024-01-15T13:02:46;7.85;;;3.90;;
84966;SDS011;75275;51.348;12.358;2024-01-15T13:05:15;6.28;;;4.07;;
84966;SDS011;75275;51.348;12.358;2024-01-15T13:07:43;10.88;;;3.90;;
84966;SDS011;75275;51.348;12.358;2024-01-15T13:10:12;7.22;;;4.20;;
84966;SDS011;75275;51.348;12.358;2024-01-15T13:12:44;7.80;;;4.13;;
84966;SDS011;75275;51.348;12.358;2024-01-15T13:15:12;7.68;;;3.90;;
84966;SDS011;75275;51.348;12.358;2024-01-15T13:17:39;9.70;;;4.43;;
84966;SDS011;75275;51.348;12.358;2024-01-15T13:20:06;8.05;;;4.13;;
84966;SDS011;75275;51.348;12.358;2024-01-15T13:22:36;9.18;;;4.72;;
84966;SDS011;75275;51.348;12.358;2024-01-15T13:25:05;8.77;;;4.22;;
84966;SDS011;75275;51.348;12.358;2024-01-15T13:27:34;7.60;;;3.72;;
84966;SDS011;75275;51.348;12.358;2024-01-15T13:30:01;10.80;;;4.18;;
84966;SDS011;75275;51.348;12.358;2024-01-15T13:34:55;7.43;;;3.55;;
84966;SDS011;75275;51.348;12.358;2024-01-15T13:37:34;7.72;;;3.65;;
84966;SDS011;75275;51.348;12.358;2024-01-15T13:40:02;5.95;;;3.42;;
84966;SDS011;75275;51.348;12.358;2024-01-15T13:42:32;8.20;;;3.92;;
84966;SDS011;75275;51.348;12.358;2024-01-15T13:45:01;9.07;;;3.92;;
84966;SDS011;75275;51.348;12.358;2024-01-15T13:47:30;10.88;;;4.13;;
84966;SDS011;75275;51.348;12.358;2024-01-15T13:49:58;7.30;;;3.92;;
84966;SDS011;75275;51.348;12.358;2024-01-15T13:52:25;7.15;;;3.65;;
84966;SDS011;75275;51.348;12.358;2024-01-15T13:54:53;10.95;;;4.60;;
84966;SDS011;75275;51.348;12.358;2024-01-15T13:57:20;7.68;;;4.43;;
84966;SDS011;75275;51.348;12.358;2024-01-15T13:59:47;8.70;;;4.70;;
84966;SDS011;75275;51.348;12.358;2024-01-15T14:02:17;9.00;;;4.55;;
84966;SDS011;75275;51.348;12.358;2024-01-15T14:04:45;6.88;;;3.25;;
84966;SDS011;75275;51.348;12.358;2024-01-15T14:07:12;8.05;;;3.25;;
84966;SDS011;75275;51.348;12.358;2024-01-15T14:09:39;5.68;;;2.72;;
84966;SDS011;75275;51.348;12.358;2024-01-15T14:12:06;6.28;;;2.83;;
84966;SDS011;75275;51.348;12.358;2024-01-15T14:14:33;6.47;;;3.40;;
84966;SDS011;75275;51.348;12.358;2024-01-15T14:17:00;6.70;;;3.35;;
84966;SDS011;75275;51.348;12.358;2024-01-15T14:19:28;5.75;;;3.13;;
84966;SDS011;75275;51.348;12.358;2024-01-15T14:21:55;7.60;;;3.20;;
84966;SDS011;75275;51.348;12.358;2024-01-15T14:24:22;5.82;;;3.50;;
84966;SDS011;75275;51.348;12.358;2024-01-15T14:26:49;5.13;;;3.15;;
84966;SDS011;75275;51.348;12.358;2024-01-15T14:29:16;8.00;;;3.50;;
84966;SDS011;75275;51.348;12.358;2024-01-15T14:31:45;6.95;;;3.20;;
84966;SDS011;75275;51.348;12.358;2024-01-15T14:34:12;6.18;;;3.38;;
84966;SDS011;75275;51.348;12.358;2024-01-15T14:36:41;7.32;;;3.65;;
84966;SDS011;75275;51.348;12.358;2024-01-15T14:39:07;7.82;;;3.22;;
84966;SDS011;75275;51.348;12.358;2024-01-15T14:41:35;6.63;;;3.50;;
84966;SDS011;75275;51.348;12.358;2024-01-15T14:44:02;6.80;;;3.80;;
84966;SDS011;75275;51.348;12.358;2024-01-15T14:46:28;8.55;;;4.68;;
84966;SDS011;75275;51.348;12.358;2024-01-15T14:48:55;7.80;;;3.88;;
84966;SDS011;75275;51.348;12.358;2024-01-15T14:51:22;7.03;;;3.65;;
84966;SDS011;75275;51.348;12.358;2024-01-15T14:56:18;8.57;;;3.70;;
84966;SDS011;75275;51.348;12.358;2024-01-15T14:58:47;7.47;;;3.10;;
84966;SDS011;75275;51.348;12.358;2024-01-15T15:01:14;7.65;;;3.55;;
84966;SDS011;75275;51.348;12.358;2024-01-15T15:06:09;8.07;;;3.90;;
84966;SDS011;75275;51.348;12.358;2024-01-15T15:08:37;6.30;;;3.95;;
84966;SDS011;75275;51.348;12.358;2024-01-15T15:11:07;7.25;;;3.85;;
84966;SDS011;75275;51.348;12.358;2024-01-15T15:13:35;7.45;;;3.40;;
84966;SDS011;75275;51.348;12.358;2024-01-15T15:16:04;8.40;;;4.00;;
84966;SDS011;75275;51.348;12.358;2024-01-15T15:18:32;7.78;;;3.10;;
84966;SDS011;75275;51.348;12.358;2024-01-15T15:21:00;7.75;;;3.10;;
84966;SDS011;75275;51.348;12.358;2024-01-15T15:23:27;9.20;;;3.53;;
84966;SDS011;75275;51.348;12.358;2024-01-15T15:25:53;7.78;;;3.78;;
84966;SDS011;75275;51.348;12.358;2024-01-15T15:28:23;8.00;;;3.63;;
84966;SDS011;75275;51.348;12.358;2024-01-15T15:30:50;9.32;;;4.25;;
84966;SDS011;75275;51.348;12.358;2024-01-15T15:33:17;6.40;;;3.92;;
84966;SDS011;75275;51.348;12.358;2024-01-15T15:35:44;7.78;;;4.43;;